Time;durP1;ratioP1;P1;durP2;ratioP2;P2;SDS_P1;SDS_P2;PMS_P1;PMS_P2;Temp;Humidity;BMP_temperature;BMP_pressure;BME280_temperature;BME280_humidity;BME280_pressure;Samples;Min_cycle;Max_cycle;Signal;HPM_P1;HPM_P2
2021/06/17 00:00:20;;;;;;;;;;;23.50;26.00;;;;;;5093812;28;19908;-76
2021/06/17 00:02:46;;;;;;;;;;;23.50;26.10;;;;;;5112015;28;19910;-76
2021/06/17 00:05:13;;;;;;;;;;;23.50;26.00;;;;;;5112164;28;19916;-75
2021/06/17 00:07:39;;;;;;;;;;;23.50;25.80;;;;;;5115422;28;19908;-76
2021/06/17 00:10:06;;;;;;;;;;;23.50;26.10;;;;;;5104487;28;19915;-76
2021/06/17 00:12:32;;;;;;;;;;;23.50;26.10;;;;;;5115720;28;19912;-76
2021/06/17 00:14:57;;;;;;;;;;;23.50;26.10;;;;;;5115816;28;19904;-75
2021/06/17 00:17:23;;;;;;;;;;;23.50;26.20;;;;;;5097600;28;19949;-76
2021/06/17 00:22:52;;;;;;;;;;;23.40;26.50;;;;;;5095220;28;19911;-76
2021/06/17 00:25:17;;;;;;;;;;;23.50;26.40;;;;;;5094204;28;19947;-77
2021/06/17 00:27:43;;;;;;;;;;;23.40;26.50;;;;;;5095497;28;19962;-75
2021/06/17 00:30:09;;;;;;;;;;;23.40;26.70;;;;;;5110758;28;20014;-75
2021/06/17 00:32:34;;;;;;;;;;;23.40;26.60;;;;;;5096732;28;19907;-76
2021/06/17 00:35:00;;;;;;;;;;;23.40;27.00;;;;;;5115379;28;19956;-76
2021/06/17 00:37:25;;;;;;;;;;;23.30;27.20;;;;;;5115871;28;20279;-77
2021/06/17 00:39:51;;;;;;;;;;;23.30;27.40;;;;;;5115943;28;19904;-76
2021/06/17 00:42:17;;;;;;;;;;;23.20;27.70;;;;;;5115135;28;19908;-75
2021/06/17 00:44:42;;;;;;;;;;;23.10;28.30;;;;;;5115022;28;19960;-75
2021/06/17 00:47:08;;;;;;;;;;;23.10;28.40;;;;;;5115373;28;19955;-75
2021/06/17 00:49:34;;;;;;;;;;;23.00;28.80;;;;;;5115439;28;20375;-75
2021/06/17 00:52:02;;;;;;;;;;;22.90;28.80;;;;;;5114958;28;19908;-74
2021/06/17 00:54:34;;;;;;;;;;;22.90;29.10;;;;;;5115327;28;20387;-77
2021/06/17 00:57:00;;;;;;;;;;;22.90;29.40;;;;;;5115507;28;19903;-75
2021/06/17 00:59:26;;;;;;;;;;;22.90;29.40;;;;;;5115313;28;19908;-75
2021/06/17 01:01:51;;;;;;;;;;;22.90;29.60;;;;;;5114909;28;19940;-74
2021/06/17 01:04:16;;;;;;;;;;;22.80;29.40;;;;;;5114856;28;19908;-75
2021/06/17 01:06:42;;;;;;;;;;;22.90;28.90;;;;;;5096697;28;19951;-76
2021/06/17 01:09:12;;;;;;;;;;;22.90;29.30;;;;;;5096541;28;19908;-75
2021/06/17 01:12:00;;;;;;;;;;;22.80;29.50;;;;;;5106710;28;19912;-74
2021/06/17 01:14:36;;;;;;;;;;;22.80;29.50;;;;;;5095492;28;19915;-75
2021/06/17 01:17:05;;;;;;;;;;;22.90;29.20;;;;;;5114607;28;19926;-76
2021/06/17 01:19:31;;;;;;;;;;;22.90;29.20;;;;;;5113486;28;20010;-75
2021/06/17 01:22:02;;;;;;;;;;;22.80;29.50;;;;;;5114473;28;19982;-74
2021/06/17 01:24:30;;;;;;;;;;;22.70;30.20;;;;;;5114246;28;20249;-74
2021/06/17 01:27:25;;;;;;;;;;;22.70;30.20;;;;;;5114339;28;20350;-74
2021/06/17 01:29:52;;;;;;;;;;;22.70;30.10;;;;;;5073269;28;19908;-76
2021/06/17 01:32:19;;;;;;;;;;;22.70;30.10;;;;;;5097894;28;19903;-74
2021/06/17 01:34:47;;;;;;;;;;;22.60;30.40;;;;;;5113939;28;19918;-74
2021/06/17 01:37:14;;;;;;;;;;;22.60;30.70;;;;;;5114308;28;19938;-76
2021/06/17 01:39:40;;;;;;;;;;;22.50;31.20;;;;;;5113877;28;19907;-75
2021/06/17 01:42:08;;;;;;;;;;;22.40;31.60;;;;;;5113884;28;19937;-75
2021/06/17 01:44:34;;;;;;;;;;;22.40;32.10;;;;;;5113542;28;19907;-75
2021/06/17 01:47:01;;;;;;;;;;;22.20;32.30;;;;;;5113883;28;19914;-76
2021/06/17 01:49:27;;;;;;;;;;;22.20;33.00;;;;;;5113979;28;19918;-75
2021/06/17 01:51:55;;;;;;;;;;;22.20;33.30;;;;;;5095635;28;19904;-75
2021/06/17 01:54:21;;;;;;;;;;;22.20;33.70;;;;;;5113078;28;20277;-75
2021/06/17 01:56:48;;;;;;;;;;;22.10;33.80;;;;;;5113807;28;19915;-75
2021/06/17 01:59:14;;;;;;;;;;;22.10;34.30;;;;;;5095168;28;19961;-77
2021/06/17 02:01:39;;;;;;;;;;;22.10;33.90;;;;;;5114211;28;19904;-76
2021/06/17 02:04:05;;;;;;;;;;;22.00;34.10;;;;;;5095472;28;19995;-76
2021/06/17 02:06:32;;;;;;;;;;;21.90;34.70;;;;;;5113914;28;19904;-75
2021/06/17 02:08:58;;;;;;;;;;;21.90;35.20;;;;;;5113705;28;19912;-75
2021/06/17 02:11:25;;;;;;;;;;;21.80;35.70;;;;;;5108919;28;19911;-75
2021/06/17 02:13:51;;;;;;;;;;;21.80;36.00;;;;;;5114575;28;19999;-75
2021/06/17 02:16:18;;;;;;;;;;;21.70;36.30;;;;;;5114789;28;19948;-76
2021/06/17 02:18:44;;;;;;;;;;;21.70;36.60;;;;;;5114151;28;19907;-76
2021/06/17 02:21:10;;;;;;;;;;;21.70;36.60;;;;;;5113486;28;20245;-75
2021/06/17 02:23:37;;;;;;;;;;;21.70;36.40;;;;;;5113111;28;19923;-74
2021/06/17 02:26:04;;;;;;;;;;;21.70;36.30;;;;;;5113811;28;20340;-76
2021/06/17 02:28:31;;;;;;;;;;;21.70;36.40;;;;;;5115344;28;19915;-77
2021/06/17 02:30:59;;;;;;;;;;;21.60;36.40;;;;;;5115229;28;19904;-75
2021/06/17 02:33:25;;;;;;;;;;;21.70;36.30;;;;;;5113441;28;19960;-74
2021/06/17 02:35:52;;;;;;;;;;;21.60;36.60;;;;;;5113225;28;19907;-75
2021/06/17 02:38:21;;;;;;;;;;;21.60;36.80;;;;;;5113585;28;19912;-75
2021/06/17 02:40:47;;;;;;;;;;;21.50;37.50;;;;;;5095384;28;19911;-75
2021/06/17 02:43:14;;;;;;;;;;;21.50;37.70;;;;;;5113906;28;19903;-74
2021/06/17 02:45:40;;;;;;;;;;;21.40;38.10;;;;;;5117965;28;19908;-75
2021/06/17 02:48:05;;;;;;;;;;;21.40;38.50;;;;;;5117223;28;19915;-74
2021/06/17 02:50:31;;;;;;;;;;;21.50;38.20;;;;;;5117218;28;19904;-76
2021/06/17 02:52:57;;;;;;;;;;;21.50;38.00;;;;;;5095486;28;19915;-76
2021/06/17 02:55:22;;;;;;;;;;;21.40;38.40;;;;;;5113132;28;19911;-74
2021/06/17 02:58:23;;;;;;;;;;;21.40;38.40;;;;;;5094689;28;20337;-75
2021/06/17 03:00:52;;;;;;;;;;;21.50;38.60;;;;;;4993158;28;21373;-75
2021/06/17 03:03:37;;;;;;;;;;;21.40;39.20;;;;;;5075365;28;19911;-75
2021/06/17 03:06:13;;;;;;;;;;;21.20;40.10;;;;;;5094335;28;20257;-74
2021/06/17 03:08:45;;;;;;;;;;;21.20;40.60;;;;;;5111776;28;19927;-74
2021/06/17 03:11:11;;;;;;;;;;;21.20;40.80;;;;;;5112329;28;19907;-73
2021/06/17 03:13:40;;;;;;;;;;;21.20;41.10;;;;;;5112476;28;19967;-75
2021/06/17 03:16:07;;;;;;;;;;;21.20;41.20;;;;;;5112474;28;20006;-75
2021/06/17 03:18:33;;;;;;;;;;;21.20;41.20;;;;;;5112235;28;19918;-75
2021/06/17 03:20:59;;;;;;;;;;;21.20;41.30;;;;;;5112372;28;19912;-75
2021/06/17 03:23:25;;;;;;;;;;;21.20;41.70;;;;;;5111336;28;20321;-75
2021/06/17 03:25:53;;;;;;;;;;;21.10;42.00;;;;;;5112022;28;19911;-75
2021/06/17 03:28:19;;;;;;;;;;;21.10;42.10;;;;;;5112005;28;19911;-75
2021/06/17 03:30:46;;;;;;;;;;;21.10;42.50;;;;;;5111856;28;19912;-76
2021/06/17 03:33:12;;;;;;;;;;;21.10;42.50;;;;;;5111401;28;19915;-75
2021/06/17 03:35:39;;;;;;;;;;;21.10;42.60;;;;;;5112352;28;19912;-73
2021/06/17 03:38:04;;;;;;;;;;;21.10;42.90;;;;;;5112795;28;19907;-76
2021/06/17 03:40:30;;;;;;;;;;;21.20;42.20;;;;;;5112434;28;19908;-74
2021/06/17 03:42:57;;;;;;;;;;;21.20;41.90;;;;;;5115422;28;19912;-71
2021/06/17 03:45:24;;;;;;;;;;;21.30;41.90;;;;;;5116618;28;19912;-73
2021/06/17 03:47:50;;;;;;;;;;;21.30;42.30;;;;;;5116193;28;20008;-75
2021/06/17 03:50:17;;;;;;;;;;;21.30;42.20;;;;;;5114368;28;19916;-74
2021/06/17 03:52:44;;;;;;;;;;;21.30;42.50;;;;;;5115683;28;19912;-75
2021/06/17 03:55:11;;;;;;;;;;;21.30;42.50;;;;;;5096748;28;20020;-76
2021/06/17 03:57:37;;;;;;;;;;;21.30;42.60;;;;;;5097205;28;19911;-75
2021/06/17 04:00:03;;;;;;;;;;;21.30;42.50;;;;;;5115297;28;19912;-75
2021/06/17 04:02:29;;;;;;;;;;;21.40;42.20;;;;;;5115775;28;19965;-75
2021/06/17 04:04:55;;;;;;;;;;;21.40;42.10;;;;;;5115721;28;19907;-76
2021/06/17 04:07:24;;;;;;;;;;;21.40;42.20;;;;;;5115976;28;19965;-75
2021/06/17 04:09:50;;;;;;;;;;;21.40;42.40;;;;;;5100304;28;19908;-76
2021/06/17 04:12:17;;;;;;;;;;;21.40;42.00;;;;;;5108456;28;19976;-75
2021/06/17 04:14:45;;;;;;;;;;;21.50;41.80;;;;;;5115700;28;19956;-76
2021/06/17 04:17:12;;;;;;;;;;;21.50;41.30;;;;;;5111615;28;20377;-77
2021/06/17 04:19:39;;;;;;;;;;;21.50;41.00;;;;;;5115503;28;19963;-75
2021/06/17 04:22:05;;;;;;;;;;;21.60;40.80;;;;;;5096876;28;19916;-75
2021/06/17 04:24:32;;;;;;;;;;;21.60;41.00;;;;;;5115377;28;20225;-75
2021/06/17 04:26:59;;;;;;;;;;;21.70;40.90;;;;;;5115295;28;19912;-75
2021/06/17 04:29:25;;;;;;;;;;;21.70;40.60;;;;;;5111300;28;19957;-75
2021/06/17 04:31:52;;;;;;;;;;;21.80;39.30;;;;;;5098804;28;19912;-75
2021/06/17 04:34:18;;;;;;;;;;;21.90;38.80;;;;;;5102336;28;19911;-75
2021/06/17 04:36:43;;;;;;;;;;;21.90;38.90;;;;;;5113634;28;20019;-74
2021/06/17 04:39:09;;;;;;;;;;;22.00;38.70;;;;;;5114349;28;20352;-74
2021/06/17 04:41:36;;;;;;;;;;;22.00;38.20;;;;;;5116268;28;19915;-75
2021/06/17 04:44:02;;;;;;;;;;;22.10;37.70;;;;;;5114887;28;20283;-76
2021/06/17 04:46:28;;;;;;;;;;;22.10;37.80;;;;;;5089975;28;20010;-76
2021/06/17 04:48:54;;;;;;;;;;;22.20;37.40;;;;;;5097889;28;19960;-77
2021/06/17 04:51:20;;;;;;;;;;;22.20;37.20;;;;;;5098242;28;19961;-76
2021/06/17 04:53:45;;;;;;;;;;;22.30;37.00;;;;;;5094344;28;19916;-75
2021/06/17 04:56:12;;;;;;;;;;;22.40;36.50;;;;;;5083304;28;19915;-77
2021/06/17 04:58:39;;;;;;;;;;;22.50;36.30;;;;;;5111954;28;19911;-75
2021/06/17 05:01:05;;;;;;;;;;;22.50;35.50;;;;;;5112064;28;20448;-75
2021/06/17 05:03:31;;;;;;;;;;;22.60;35.20;;;;;;5107009;28;19912;-75
2021/06/17 05:05:59;;;;;;;;;;;22.70;34.80;;;;;;5108466;28;19919;-76
2021/06/17 05:10:53;;;;;;;;;;;22.90;34.20;;;;;;5097457;28;20002;-76
2021/06/17 05:13:18;;;;;;;;;;;22.90;33.50;;;;;;5084398;28;19989;-75
2021/06/17 05:15:44;;;;;;;;;;;23.10;32.90;;;;;;5092598;28;19912;-76
2021/06/17 05:18:09;;;;;;;;;;;23.10;32.90;;;;;;5101171;28;19912;-75
2021/06/17 05:20:35;;;;;;;;;;;23.30;31.70;;;;;;5090479;28;20346;-76
2021/06/17 05:23:00;;;;;;;;;;;23.30;31.60;;;;;;5102165;28;19924;-76
2021/06/17 05:25:27;;;;;;;;;;;23.40;31.90;;;;;;5115341;28;19975;-77
2021/06/17 05:27:53;;;;;;;;;;;23.50;31.20;;;;;;5111167;28;20022;-78
2021/06/17 05:30:18;;;;;;;;;;;23.60;30.90;;;;;;5098697;28;19984;-74
2021/06/17 05:32:44;;;;;;;;;;;23.70;30.10;;;;;;5106478;28;20002;-79
2021/06/17 05:35:09;;;;;;;;;;;23.90;29.30;;;;;;5106553;28;20042;-76
2021/06/17 05:37:35;;;;;;;;;;;24.10;28.90;;;;;;5107917;28;19920;-77
2021/06/17 05:40:00;;;;;;;;;;;24.30;27.60;;;;;;5111029;28;19915;-76
2021/06/17 05:42:26;;;;;;;;;;;24.50;27.40;;;;;;5094122;28;20393;-76
2021/06/17 05:44:53;;;;;;;;;;;24.60;26.30;;;;;;5089155;28;19926;-75
2021/06/17 05:47:19;;;;;;;;;;;24.80;25.60;;;;;;5101665;28;19916;-76
2021/06/17 05:49:44;;;;;;;;;;;24.90;24.50;;;;;;5103738;28;19912;-76
2021/06/17 05:52:10;;;;;;;;;;;25.10;24.20;;;;;;5105521;28;20276;-76
2021/06/17 05:54:35;;;;;;;;;;;25.30;22.80;;;;;;5085771;28;19915;-77
2021/06/17 05:57:01;;;;;;;;;;;25.50;22.30;;;;;;5110110;28;20360;-76
2021/06/17 05:59:27;;;;;;;;;;;25.70;21.90;;;;;;5103841;28;19916;-76
2021/06/17 06:01:52;;;;;;;;;;;25.90;20.80;;;;;;5103321;28;19995;-76
2021/06/17 06:04:18;;;;;;;;;;;26.00;20.70;;;;;;5114324;28;19919;-78
2021/06/17 06:06:43;;;;;;;;;;;26.20;20.20;;;;;;5112784;28;19923;-78
2021/06/17 06:09:09;;;;;;;;;;;26.40;19.60;;;;;;5087587;28;19912;-77
2021/06/17 06:11:35;;;;;;;;;;;26.60;19.20;;;;;;5110346;28;19980;-78
2021/06/17 06:14:00;;;;;;;;;;;26.60;19.00;;;;;;5109401;28;19912;-77
2021/06/17 06:16:28;;;;;;;;;;;26.50;19.10;;;;;;5097731;28;20015;-77
2021/06/17 06:18:53;;;;;;;;;;;26.50;19.40;;;;;;5087060;28;19919;-78
2021/06/17 06:21:18;;;;;;;;;;;26.70;19.20;;;;;;5111172;28;19907;-77
2021/06/17 06:23:44;;;;;;;;;;;26.80;18.50;;;;;;5104706;28;19957;-77
2021/06/17 06:26:09;;;;;;;;;;;26.90;18.10;;;;;;5108161;28;19921;-78
2021/06/17 06:28:35;;;;;;;;;;;27.20;18.10;;;;;;5086902;28;19920;-78
2021/06/17 06:31:00;;;;;;;;;;;27.50;17.10;;;;;;5113384;28;19908;-78
2021/06/17 06:33:26;;;;;;;;;;;27.70;16.50;;;;;;5107700;28;19998;-79
2021/06/17 06:35:52;;;;;;;;;;;28.10;16.50;;;;;;5110929;28;19912;-77
2021/06/17 06:38:17;;;;;;;;;;;28.40;15.70;;;;;;5102481;28;20336;-78
2021/06/17 06:40:43;;;;;;;;;;;28.50;15.00;;;;;;5102625;28;20304;-78
2021/06/17 06:43:11;;;;;;;;;;;28.40;14.60;;;;;;5104076;28;19965;-78
2021/06/17 06:45:36;;;;;;;;;;;28.50;15.00;;;;;;5106342;28;19920;-78
2021/06/17 06:48:02;;;;;;;;;;;28.40;14.80;;;;;;5093672;28;19912;-78
2021/06/17 06:50:28;;;;;;;;;;;28.40;14.30;;;;;;5094035;28;19916;-77
2021/06/17 06:52:53;;;;;;;;;;;28.60;14.40;;;;;;5116186;28;19951;-75
2021/06/17 06:55:19;;;;;;;;;;;28.60;14.40;;;;;;5112990;28;19908;-78
2021/06/17 06:57:45;;;;;;;;;;;28.70;14.00;;;;;;5105861;28;19912;-73
2021/06/17 07:00:11;;;;;;;;;;;28.70;13.70;;;;;;5105095;28;19919;-76
2021/06/17 07:02:37;;;;;;;;;;;28.80;14.00;;;;;;5102592;28;19915;-76
2021/06/17 07:05:03;;;;;;;;;;;28.60;13.50;;;;;;5090625;28;19923;-76
2021/06/17 07:07:29;;;;;;;;;;;28.50;14.00;;;;;;5104927;28;20408;-77
2021/06/17 07:09:54;;;;;;;;;;;28.50;14.20;;;;;;5096112;28;19951;-77
2021/06/17 07:12:20;;;;;;;;;;;28.50;14.30;;;;;;5108368;28;20356;-76
2021/06/17 07:14:45;;;;;;;;;;;28.50;14.40;;;;;;5112170;28;19916;-76
2021/06/17 07:17:11;;;;;;;;;;;28.50;14.50;;;;;;5111392;28;19908;-76
2021/06/17 07:19:37;;;;;;;;;;;28.50;14.60;;;;;;5093706;28;19912;-76
2021/06/17 07:22:02;;;;;;;;;;;28.50;14.90;;;;;;5102288;28;19919;-76
2021/06/17 07:24:28;;;;;;;;;;;28.50;14.60;;;;;;5106352;28;20364;-76
2021/06/17 07:26:54;;;;;;;;;;;28.50;14.40;;;;;;5110576;28;20343;-75
2021/06/17 07:29:20;;;;;;;;;;;28.50;14.60;;;;;;5110118;28;19919;-76
2021/06/17 07:31:45;;;;;;;;;;;28.50;13.70;;;;;;5106356;28;19961;-76
2021/06/17 07:34:11;;;;;;;;;;;28.50;13.80;;;;;;5114070;28;19916;-78
2021/06/17 07:36:38;;;;;;;;;;;28.50;13.30;;;;;;5105837;28;20330;-77
2021/06/17 07:39:08;;;;;;;;;;;28.60;12.80;;;;;;5110738;28;19961;-78
2021/06/17 07:41:33;;;;;;;;;;;28.60;12.80;;;;;;5102937;28;19911;-79
2021/06/17 07:43:59;;;;;;;;;;;28.80;12.50;;;;;;5096487;28;19934;-79
2021/06/17 07:46:25;;;;;;;;;;;28.80;12.30;;;;;;5121854;28;19916;-77
2021/06/17 07:48:50;;;;;;;;;;;28.90;12.20;;;;;;5104429;28;19966;-77
2021/06/17 07:51:16;;;;;;;;;;;29.00;12.90;;;;;;5099769;28;19912;-77
2021/06/17 07:53:41;;;;;;;;;;;29.00;12.60;;;;;;5094396;28;19963;-76
2021/06/17 07:56:08;;;;;;;;;;;29.10;12.90;;;;;;5108860;28;19920;-77
2021/06/17 07:58:33;;;;;;;;;;;29.10;13.30;;;;;;5090675;28;19912;-75
2021/06/17 08:00:59;;;;;;;;;;;29.10;13.40;;;;;;5110140;28;19912;-77
2021/06/17 08:03:24;;;;;;;;;;;29.10;13.20;;;;;;5093402;28;19912;-76
2021/06/17 08:05:50;;;;;;;;;;;29.10;13.50;;;;;;5094365;28;20365;-77
2021/06/17 08:08:16;;;;;;;;;;;29.10;13.30;;;;;;5113234;28;19920;-77
2021/06/17 08:10:42;;;;;;;;;;;29.10;13.50;;;;;;5102474;28;19927;-76
2021/06/17 08:13:08;;;;;;;;;;;29.10;13.20;;;;;;5110403;28;19915;-74
2021/06/17 08:15:34;;;;;;;;;;;29.20;13.30;;;;;;5112291;28;19953;-76
2021/06/17 08:17:59;;;;;;;;;;;29.20;13.00;;;;;;5111176;28;19919;-75
2021/06/17 08:20:25;;;;;;;;;;;29.30;13.30;;;;;;5102704;28;19920;-76
2021/06/17 08:22:50;;;;;;;;;;;29.30;12.60;;;;;;5105582;28;20294;-77
2021/06/17 08:25:16;;;;;;;;;;;29.40;12.40;;;;;;5113579;28;20387;-76
2021/06/17 08:27:42;;;;;;;;;;;29.40;12.90;;;;;;5105236;28;20010;-76
2021/06/17 08:30:09;;;;;;;;;;;29.50;12.60;;;;;;5100767;28;20006;-77
2021/06/17 08:32:35;;;;;;;;;;;29.60;12.30;;;;;;5109254;28;19930;-77
2021/06/17 08:35:01;;;;;;;;;;;29.60;11.50;;;;;;5114264;28;20407;-78
2021/06/17 08:37:26;;;;;;;;;;;29.60;12.00;;;;;;5115560;28;19911;-77
2021/06/17 08:39:55;;;;;;;;;;;29.70;12.20;;;;;;5115635;28;19916;-77
2021/06/17 08:42:28;;;;;;;;;;;29.80;12.30;;;;;;5102622;28;19912;-78
2021/06/17 08:44:54;;;;;;;;;;;29.90;10.30;;;;;;5114991;28;20045;-76
2021/06/17 08:47:20;;;;;;;;;;;30.00;11.00;;;;;;5115464;28;19911;-77
2021/06/17 08:49:45;;;;;;;;;;;30.00;11.30;;;;;;5116302;28;20253;-77
2021/06/17 08:52:12;;;;;;;;;;;30.10;11.30;;;;;;5097812;28;19915;-75
2021/06/17 08:54:38;;;;;;;;;;;30.20;10.60;;;;;;5112587;28;19995;-77
2021/06/17 08:57:03;;;;;;;;;;;30.20;10.50;;;;;;5097428;28;19962;-77
2021/06/17 08:59:30;;;;;;;;;;;30.30;10.20;;;;;;5116479;28;20460;-77
2021/06/17 09:01:56;;;;;;;;;;;30.20;9.80;;;;;;5115338;28;19920;-78
2021/06/17 09:04:25;;;;;;;;;;;30.10;10.20;;;;;;5089159;28;19912;-78
2021/06/17 09:07:00;;;;;;;;;;;30.10;10.20;;;;;;5093074;28;19957;-78
2021/06/17 09:09:31;;;;;;;;;;;30.30;10.00;;;;;;5107912;28;20341;-78
2021/06/17 09:11:57;;;;;;;;;;;30.40;10.10;;;;;;5100049;28;19916;-78
2021/06/17 09:14:24;;;;;;;;;;;30.40;10.30;;;;;;5098941;28;20365;-78
2021/06/17 09:16:57;;;;;;;;;;;30.50;9.70;;;;;;5112753;28;19918;-77
2021/06/17 09:19:40;;;;;;;;;;;30.60;9.70;;;;;;5109409;28;19916;-78
2021/06/17 09:22:06;;;;;;;;;;;30.70;10.20;;;;;;5116484;28;19923;-78
2021/06/17 09:24:34;;;;;;;;;;;30.70;9.90;;;;;;5106939;28;20031;-77
2021/06/17 09:27:19;;;;;;;;;;;30.70;9.20;;;;;;5113443;28;19911;-78
2021/06/17 09:29:44;;;;;;;;;;;30.60;9.20;;;;;;5097579;28;19911;-77
2021/06/17 09:32:20;;;;;;;;;;;30.70;8.90;;;;;;5093443;28;19998;-79
2021/06/17 09:34:46;;;;;;;;;;;30.60;9.90;;;;;;5088073;28;20079;-75
2021/06/17 09:37:31;;;;;;;;;;;30.60;9.40;;;;;;5113732;28;20345;-75
2021/06/17 09:39:57;;;;;;;;;;;30.60;9.90;;;;;;5108035;28;20458;-74
2021/06/17 09:42:30;;;;;;;;;;;30.70;10.10;;;;;;5112496;28;19924;-76
2021/06/17 09:44:56;;;;;;;;;;;30.90;9.50;;;;;;5094516;28;20091;-79
2021/06/17 09:47:22;;;;;;;;;;;30.90;9.50;;;;;;5113152;28;19919;-79
2021/06/17 09:49:48;;;;;;;;;;;31.00;9.50;;;;;;5114255;28;20365;-79
2021/06/17 09:52:14;;;;;;;;;;;31.00;9.40;;;;;;5112865;28;19965;-80
2021/06/17 09:54:42;;;;;;;;;;;31.00;9.70;;;;;;5101888;28;20291;-79
2021/06/17 09:57:09;;;;;;;;;;;31.10;9.60;;;;;;5117715;28;19912;-79
2021/06/17 09:59:49;;;;;;;;;;;31.30;10.20;;;;;;5101298;28;19913;-79
2021/06/17 10:02:21;;;;;;;;;;;31.30;9.10;;;;;;5113158;28;19990;-81
2021/06/17 10:04:47;;;;;;;;;;;31.40;8.70;;;;;;5105171;28;19920;-80
2021/06/17 10:07:13;;;;;;;;;;;31.40;8.80;;;;;;5136326;27;20027;-80
2021/06/17 10:09:39;;;;;;;;;;;31.50;8.40;;;;;;5116128;28;19952;-79
2021/06/17 10:12:05;;;;;;;;;;;31.60;8.50;;;;;;5101609;28;20630;-75
2021/06/17 10:14:31;;;;;;;;;;;31.60;8.60;;;;;;5111795;28;19912;-75
2021/06/17 10:16:59;;;;;;;;;;;31.70;8.20;;;;;;5110022;28;20288;-75
2021/06/17 10:19:25;;;;;;;;;;;31.80;8.40;;;;;;5111036;28;19923;-75
2021/06/17 10:21:50;;;;;;;;;;;32.00;8.60;;;;;;5113631;28;19909;-76
2021/06/17 10:24:17;;;;;;;;;;;32.10;8.70;;;;;;5108216;28;20261;-78
2021/06/17 10:26:48;;;;;;;;;;;32.20;8.00;;;;;;5089139;28;19919;-78
2021/06/17 10:29:28;;;;;;;;;;;32.20;8.00;;;;;;5107731;28;20292;-77
2021/06/17 10:31:55;;;;;;;;;;;32.10;8.40;;;;;;5108967;28;19911;-78
2021/06/17 10:34:29;;;;;;;;;;;32.20;7.50;;;;;;5108189;28;19943;-78
2021/06/17 10:37:04;;;;;;;;;;;32.30;7.50;;;;;;5108867;28;20407;-78
2021/06/17 10:39:39;;;;;;;;;;;32.40;7.50;;;;;;5112379;28;19951;-78
2021/06/17 10:42:04;;;;;;;;;;;32.40;7.80;;;;;;5104131;28;19922;-78
2021/06/17 10:44:33;;;;;;;;;;;32.50;7.10;;;;;;5113755;28;19907;-79
2021/06/17 10:46:58;;;;;;;;;;;32.50;7.00;;;;;;5095373;28;19912;-79
2021/06/17 10:49:42;;;;;;;;;;;32.70;7.40;;;;;;5114570;28;19934;-78
2021/06/17 10:52:23;;;;;;;;;;;32.80;7.10;;;;;;5116060;28;19915;-79
2021/06/17 10:54:55;;;;;;;;;;;32.80;6.30;;;;;;5098718;28;19916;-79
2021/06/17 10:57:40;;;;;;;;;;;32.90;6.50;;;;;;5094818;28;19920;-76
2021/06/17 11:02:54;;;;;;;;;;;33.00;5.70;;;;;;5092220;28;19912;-75
2021/06/17 11:08:15;;;;;;;;;;;33.10;6.10;;;;;;5101966;28;19912;-76
2021/06/17 11:10:47;;;;;;;;;;;33.10;5.80;;;;;;5102320;28;20003;-76
2021/06/17 11:13:31;;;;;;;;;;;33.10;5.50;;;;;;5100678;28;20402;-77
2021/06/17 11:15:57;;;;;;;;;;;33.20;5.50;;;;;;5102927;28;19947;-75
2021/06/17 11:18:42;;;;;;;;;;;33.30;5.80;;;;;;5110819;28;19999;-76
2021/06/17 11:21:23;;;;;;;;;;;33.40;4.80;;;;;;5109524;28;19977;-74
2021/06/17 11:23:49;;;;;;;;;;;33.50;5.60;;;;;;5107473;28;19916;-78
2021/06/17 11:27:29;;;;;;;7.72;5.90;;;33.60;3.90;;;;;;5125446;27;20370;-78
2021/06/17 11:29:57;;;;;;;11.27;6.20;;;33.70;3.90;;;;;;5091313;28;20395;-78
2021/06/17 11:32:28;;;;;;;14.10;6.20;;;33.70;4.30;;;;;;5087306;28;20443;-75
2021/06/17 11:34:53;;;;;;;10.55;6.20;;;33.70;4.20;;;;;;5085907;28;20466;-77
2021/06/17 11:37:19;;;;;;;6.90;6.00;;;33.80;4.10;;;;;;5075116;28;20470;-76
2021/06/17 11:39:47;;;;;;;17.92;7.40;;;34.00;4.40;;;;;;5073906;28;20821;-75
2021/06/17 11:42:19;;;;;;;10.85;5.90;;;34.20;3.30;;;;;;5082063;28;20388;-75
2021/06/17 11:45:00;;;;;;;6.20;5.60;;;34.20;3.60;;;;;;5080772;28;20390;-76
2021/06/17 11:47:26;;;;;;;8.85;6.00;;;34.20;3.60;;;;;;5068915;28;20458;-77
2021/06/17 11:49:52;;;;;;;7.20;5.38;;;34.40;3.30;;;;;;5077881;28;20849;-78
2021/06/17 11:52:19;;;;;;;5.68;5.10;;;34.80;3.10;;;;;;5074467;28;20741;-77
2021/06/17 11:54:48;;;;;;;5.78;5.20;;;35.00;2.00;;;;;;5086280;28;20729;-80
2021/06/17 11:57:15;;;;;;;6.57;5.20;;;35.00;2.50;;;;;;5090727;28;20779;-75
2021/06/17 11:59:48;;;;;;;5.50;5.00;;;35.00;2.40;;;;;;5083863;28;20398;-77
2021/06/17 12:02:18;;;;;;;;;;;35.30;2.10;;;;;;5083089;28;20298;-77
2021/06/17 12:07:26;;;;;;;;;;;35.60;1.50;;;;;;5089157;28;19913;-77
2021/06/17 12:10:06;;;;;;;;;;;35.80;1.00;;;;;;5099022;28;19951;-77
2021/06/17 12:12:31;;;;;;;;;;;36.00;1.20;;;;;;5074909;28;19912;-77
2021/06/17 12:14:57;;;;;;;;;;;36.10;1.00;;;;;;5088136;28;19927;-77
2021/06/17 12:17:25;;;;;;;;;;;36.20;1.00;;;;;;5089545;28;19904;-77
2021/06/17 12:19:55;;;;;;;;;;;36.10;1.00;;;;;;5089969;28;19912;-77
2021/06/17 12:22:20;;;;;;;;;;;35.90;1.00;;;;;;5087993;28;20373;-75
2021/06/17 12:24:46;;;;;;;;;;;36.10;1.00;;;;;;5088689;28;19915;-77
2021/06/17 12:27:11;;;;;;;;;;;36.10;1.00;;;;;;5089123;28;19919;-76
2021/06/17 12:29:37;;;;;;;;;;;36.20;1.00;;;;;;5087362;28;19911;-76
2021/06/17 12:32:02;;;;;;;;;;;36.10;1.00;;;;;;5080289;28;19908;-76
2021/06/17 12:34:36;;;;;;;;;;;35.80;1.00;;;;;;5107296;28;19904;-77
2021/06/17 12:37:03;;;;;;;;;;;35.80;1.00;;;;;;5095050;28;19951;-77
2021/06/17 12:39:29;;;;;;;;;;;35.90;1.00;;;;;;5075531;28;19911;-77
2021/06/17 12:41:54;;;;;;;;;;;36.00;1.00;;;;;;5062077;28;19992;-77
2021/06/17 12:44:31;;;;;;;;;;;35.90;1.00;;;;;;5054569;28;19951;-75
2021/06/17 12:46:57;;;;;;;;;;;35.90;1.10;;;;;;5054540;28;20007;-76
2021/06/17 12:52:09;;;;;;;;;;;35.80;1.50;;;;;;5060431;28;19931;-76
2021/06/17 12:54:39;;;;;;;;;;;36.30;1.00;;;;;;5054674;28;20008;-76
2021/06/17 12:57:05;;;;;;;;;;;36.50;1.00;;;;;;5055173;28;19909;-76
2021/06/17 12:59:38;;;;;;;;;;;36.90;1.00;;;;;;5054382;28;19930;-76
2021/06/17 13:02:04;;;;;;;;;;;37.40;1.00;;;;;;5054531;28;20382;-76
2021/06/17 13:04:30;;;;;;;;;;;37.80;1.00;;;;;;5059184;28;20421;-76
2021/06/17 13:06:55;;;;;;;;;;;37.70;1.00;;;;;;5068521;28;19919;-77
2021/06/17 13:09:25;;;;;;;;;;;37.60;1.00;;;;;;5078614;28;19943;-77
2021/06/17 13:12:17;;;;;;;;;;;37.40;1.00;;;;;;5085100;28;19904;-75
2021/06/17 13:15:02;;;;;;;;;;;37.10;1.00;;;;;;5062569;28;19909;-78
2021/06/17 13:17:28;;;;;;;;;;;37.00;1.00;;;;;;5058967;28;19954;-76
2021/06/17 13:19:53;;;;;;;;;;;37.00;1.00;;;;;;5058599;28;19912;-75
2021/06/17 13:22:20;;;;;;;;;;;36.90;1.00;;;;;;5080722;28;19908;-77
2021/06/17 13:24:46;;;;;;;;;;;36.70;1.00;;;;;;5067108;28;19909;-75
2021/06/17 13:27:20;;;;;;;;;;;36.50;1.00;;;;;;5067931;28;19919;-77
2021/06/17 13:29:48;;;;;;;;;;;36.90;1.00;;;;;;5060688;28;19940;-75
2021/06/17 13:32:15;;;;;;;;;;;37.70;1.00;;;;;;5058730;28;19916;-76
2021/06/17 13:34:40;;;;;;;;;;;38.70;1.00;;;;;;5072182;28;19918;-75
2021/06/17 13:37:05;;;;;;;;;;;39.60;1.00;;;;;;5073884;28;20003;-75
2021/06/17 13:39:31;;;;;;;;;;;39.80;1.00;;;;;;5077222;28;19912;-76
2021/06/17 13:41:56;;;;;;;;;;;39.60;1.00;;;;;;5070853;28;19994;-76
2021/06/17 13:44:23;;;;;;;;;;;38.90;1.00;;;;;;5072218;28;19908;-77
2021/06/17 13:46:48;;;;;;;;;;;38.20;1.00;;;;;;5060670;28;19928;-76
2021/06/17 13:49:13;;;;;;;;;;;37.70;1.00;;;;;;5072686;28;19908;-76
2021/06/17 13:51:39;;;;;;;;;;;37.40;1.30;;;;;;5062013;28;20395;-76
2021/06/17 13:54:04;;;;;;;;;;;37.40;2.20;;;;;;5072469;28;19912;-76
2021/06/17 13:59:05;;;;;;;9.20;8.10;;;37.90;1.00;;;;;;5128906;27;20363;-75
2021/06/17 14:01:31;;;;;;;11.30;6.70;;;38.30;1.00;;;;;;5095374;28;20408;-77
2021/06/17 14:03:57;;;;;;;7.47;6.93;;;38.80;1.00;;;;;;5090612;28;20909;-79
2021/06/17 14:06:22;;;;;;;8.70;7.00;;;38.80;1.00;;;;;;5089147;28;20892;-77
2021/06/17 14:08:48;;;;;;;8.43;7.10;;;37.40;1.00;;;;;;5098700;27;20495;-77
2021/06/17 14:11:13;;;;;;;7.37;6.67;;;37.50;1.10;;;;;;5057431;23;20921;-72
2021/06/17 14:13:39;;;;;;;10.60;6.50;;;38.50;1.00;;;;;;5043600;28;20418;-72
2021/06/17 14:16:05;;;;;;;8.63;6.77;;;39.60;1.00;;;;;;5046484;28;20408;-72
2021/06/17 14:18:30;;;;;;;7.30;6.15;;;39.90;1.00;;;;;;5033669;28;20414;-73
2021/06/17 14:20:56;;;;;;;6.50;6.00;;;40.00;1.00;;;;;;5055985;28;20397;-71
2021/06/17 14:23:22;;;;;;;8.20;6.20;;;40.20;1.00;;;;;;5047749;28;20389;-72
2021/06/17 14:25:49;;;;;;;12.27;6.40;;;39.80;1.00;;;;;;5066080;28;20388;-71
2021/06/17 14:28:15;;;;;;;11.15;6.70;;;38.70;1.00;;;;;;5065765;28;20758;-73
2021/06/17 14:30:41;;;;;;;8.13;6.35;;;37.50;1.00;;;;;;5066086;28;20453;-72
2021/06/17 14:33:07;;;;;;;8.82;6.72;;;38.10;1.00;;;;;;5063416;28;20400;-72